CANAVERAL EAST 120NM East of Cape Canaveral (41010)

Conditions for Wednesday

Daily
Weekly
Monthly
Marine Data Graph

Current Weather/Wave Observations

Air Temperature: 74° F
Humidity: 78
Wind direction (W Dir): South (165 - 174 Degrees)
Wind Speed (W Spd): 15.6 kts (17.9 mph)
Wind Gust (W Spd): 17.5 kts (20.1 mph)
Atmospheric Pressure (AP): 30.16 in

Updated: 10:20 PM EST on March 04, 2015

Marine & Boating Location Search

Enter a coastal zip code for marine weather.

Current Wave Detail Observations

Water Depth: 6145 ft
Wave Height: 3.97 ft
Spectral Peak Period: 9.1 sec
Average Wave Period: 5.2 sec
Sampling Interval: 0.6 sec
Wave Record: 2400 sec

Updated: 10:00 PM EST on March 04, 2015

General Information

Location: 28.906 North -78.471 West
Buoy Type: 6-meter NOMAD buoy
Buoy Hull: 6N26
Payload: ARES payload
Owned by: NDBC
Windspeed: Measured by obtained from anemometer
Sea Surface: Measured by Intake
Note:
 

Weather and Wave Data

Time Temp Humidity Wind Dominant Wave Wind Wave Wave Swell Pressure
  Air
(°F)
Water
(°F)
  Dir Speed
(kts)
Speed
(mph)
Period
(sec)
Height
(ft)
Range
(ft)
Period
(sec)
Height
(ft)
Range
(ft)
Period
(sec)
Height
(ft)
Range
(ft)
Atmo.
(in)
Tend.
(in)
20:20 73 75 78 SE 9.7 11.2 - - - - - - 30.21 -
20:50 74 75 74 SE 9.7 11.2 9 3.28 exactly 3.3 5 1.64 0.82 - 2.46 9 3.28 2.46 - 4.10 30.21 +0.03
21:20 74 75 75 SE 11.7 13.4 - - - - - - 30.21 -
21:50 74 75 76 SE 11.7 13.4 9 3.28 exactly 3.3 5 1.64 0.82 - 2.46 9 3.28 2.46 - 4.10 30.22 +0.02
22:20 74 75 76 SE 11.7 13.4 - - - - - - 30.22 -
22:50 74 75 75 SE 11.7 13.4 8 3.28 exactly 3.3 3 1.64 0.82 - 2.46 8 3.28 2.46 - 4.10 30.22 +0.01
23:20 74 75 76 SE 13.6 15.7 - - - - - - 30.21 -
23:50 74 75 74 SSE 11.7 13.4 8 3.61 exactly 3.6 6 1.64 0.82 - 2.46 8 3.28 2.46 - 4.10 30.20 -
00:20 74 75 74 SSE 13.6 15.7 - - - - - - 30.19 -
00:50 74 75 75 SSE 15.6 17.9 10 3.61 exactly 3.6 4 1.64 0.82 - 2.46 10 3.28 2.46 - 4.10 30.18 -0.04
01:20 74 75 75 SSE 13.6 15.7 - - - - - - 30.18 -
01:50 74 75 75 South 11.7 13.4 9 4.27 exactly 4.3 4 1.64 0.82 - 2.46 9 3.28 2.46 - 4.10 30.17 -0.04
02:20 73 75 77 SSE 11.7 13.4 - - - - - - 30.17 -
02:50 73 75 78 SSE 11.7 13.4 9 3.94 exactly 3.9 4 1.64 0.82 - 2.46 9 3.28 2.46 - 4.10 30.16 -0.04
03:20 74 75 72 SSE 11.7 13.4 - - - - - - 30.15 -
03:50 73 74 76 SSE 13.6 15.7 8 4.59 exactly 4.6 6 1.64 0.82 - 2.46 8 4.92 4.10 - 5.74 30.14 -0.04
04:20 73 74 76 SSE 11.7 13.4 - - - - - - 30.14 -
04:50 73 74 76 South 13.6 15.7 9 4.92 exactly 4.9 4 3.28 2.46 - 4.10 9 4.92 4.10 - 5.74 30.14 -0.03
05:20 73 74 76 SSE 11.7 13.4 - - - - - - 30.15 -
05:50 73 74 76 South 11.7 13.4 9 4.59 exactly 4.6 5 1.64 0.82 - 2.46 9 3.28 2.46 - 4.10 30.16 -
06:20 73 74 75 South 11.7 13.4 - - - - - - 30.17 -
06:50 73 74 73 SSE 11.7 13.4 8 4.59 exactly 4.6 4 1.64 0.82 - 2.46 8 3.28 2.46 - 4.10 30.18 +0.04
07:20 74 74 71 SSE 11.7 13.4 - - - - - - 30.19 -
07:50 74 75 71 SSE 11.7 13.4 9 4.59 exactly 4.6 6 3.28 2.46 - 4.10 9 3.28 2.46 - 4.10 30.20 +0.06
08:20 74 75 71 SSE 11.7 13.4 - - - - - - 30.21 -
08:50 74 75 71 SSE 11.7 13.4 10 4.59 exactly 4.6 4 3.28 2.46 - 4.10 10 3.28 2.46 - 4.10 30.22 +0.06
09:20 74 75 71 SSE 11.7 13.4 - - - - - - 30.22 -
09:50 74 75 71 SSE 11.7 13.4 10 4.59 exactly 4.6 4 3.28 2.46 - 4.10 10 3.28 2.46 - 4.10 30.22 +0.04
10:20 74 75 72 SSE 11.7 13.4 - - - - - - 30.22 -
10:50 74 75 73 SSE 11.7 13.4 8 4.92 exactly 4.9 6 3.28 2.46 - 4.10 8 4.92 4.10 - 5.74 30.22 +0.02
11:20 74 75 73 SSE 11.7 13.4 - - - - - - 30.22 -
11:50 74 75 74 South 13.6 15.7 9 4.59 exactly 4.6 6 3.28 2.46 - 4.10 9 3.28 2.46 - 4.10 30.21 -0.01
12:20 74 75 75 South 13.6 15.7 - - - - - - 30.19 -
12:50 74 75 74 South 13.6 15.7 10 4.59 exactly 4.6 6 3.28 2.46 - 4.10 10 3.28 2.46 - 4.10 30.18 -0.05
13:20 74 75 74 South 13.6 15.7 - - - - - - 30.17 -
13:50 74 75 73 South 13.6 15.7 8 4.59 exactly 4.6 5 3.28 2.46 - 4.10 8 3.28 2.46 - 4.10 30.16 -0.06
14:20 74 75 74 South 11.7 13.4 - - - - - - 30.15 -
14:50 74 75 73 South 13.6 15.7 10 4.27 exactly 4.3 6 1.64 0.82 - 2.46 10 3.28 2.46 - 4.10 30.15 -0.06
15:20 74 75 74 South 13.6 15.7 - - - - - - 30.14 -
15:50 74 75 74 South 13.6 15.7 9 4.27 exactly 4.3 5 3.28 2.46 - 4.10 9 3.28 2.46 - 4.10 30.14 -0.04
17:20 74 75 74 South 11.7 13.4 - - - - - - 30.14 -
17:50 74 75 74 South 11.7 13.4 10 4.27 exactly 4.3 5 1.64 0.82 - 2.46 10 3.28 2.46 - 4.10 30.14 -0.01
18:20 74 75 75 South 11.7 13.4 - - - - - - 30.14 -
18:50 74 75 75 South 13.6 15.7 10 3.94 exactly 3.9 5 1.64 0.82 - 2.46 10 3.28 2.46 - 4.10 30.14 -
19:20 74 75 76 South 13.6 15.7 - - - - - - 30.14 -
19:50 74 75 76 SSE 13.6 15.7 9 4.27 exactly 4.3 5 3.28 2.46 - 4.10 9 3.28 2.46 - 4.10 30.15 +0.01
20:20 74 75 76 SSE 13.6 15.7 - - - - - - 30.15 -
20:50 74 75 78 SSE 13.6 15.7 10 4.27 exactly 4.3 5 3.28 2.46 - 4.10 10 3.28 2.46 - 4.10 30.16 +0.03
21:20 74 75 78 SSE 13.6 15.7 - - - - - - 30.17 -
21:50 74 75 78 South 15.6 17.9 9 3.94 exactly 3.9 6 3.28 2.46 - 4.10 9 3.28 2.46 - 4.10 30.17 +0.03
22:20 74 75 78 South 15.6 17.9 - - - - - - 30.16 -

Detailed Wave Spectra

Time Water Depth Wave Height Spectral Peak Period Average Wave Period Sampling Interval Wave Record
20:00 6145 ft 3.61 ft 9.1 sec 5.8 sec 0.6 sec 2400 sec
21:00 6145 ft 3.18 ft 9.1 sec 5.8 sec 0.6 sec 2400 sec
22:00 6145 ft 3.41 ft 9.1 sec 5.8 sec 0.6 sec 2400 sec
00:00 6145 ft 3.48 ft 8.3 sec 5.7 sec 0.6 sec 2400 sec
01:00 6145 ft 3.67 ft 10.0 sec 5.6 sec 0.6 sec 2400 sec
02:00 6145 ft 4.10 ft 9.1 sec 5.7 sec 0.6 sec 2400 sec
03:00 6145 ft 4.00 ft 9.1 sec 5.6 sec 0.6 sec 2400 sec
04:00 6145 ft 4.76 ft 8.3 sec 6.1 sec 0.6 sec 2400 sec
05:00 6145 ft 4.92 ft 9.1 sec 6.0 sec 0.6 sec 2400 sec
06:00 6145 ft 4.63 ft 9.1 sec 5.8 sec 0.6 sec 2400 sec
07:00 6145 ft 4.66 ft 7.7 sec 5.8 sec 0.6 sec 2400 sec
08:00 6145 ft 4.53 ft 9.1 sec 5.7 sec 0.6 sec 2400 sec
09:00 6145 ft 4.59 ft 10.0 sec 5.7 sec 0.6 sec 2400 sec
10:00 6145 ft 4.63 ft 10.0 sec 5.9 sec 0.6 sec 2400 sec
11:00 6145 ft 4.86 ft 8.3 sec 5.9 sec 0.6 sec 2400 sec
12:00 6145 ft 4.46 ft 9.1 sec 5.8 sec 0.6 sec 2400 sec
13:00 6145 ft 4.49 ft 10.0 sec 5.9 sec 0.6 sec 2400 sec
16:00 6145 ft 4.43 ft 9.1 sec 5.6 sec 0.6 sec 2400 sec
18:00 6145 ft 4.10 ft 10.0 sec 5.5 sec 0.6 sec 2400 sec
19:00 6145 ft 3.87 ft 10.0 sec 5.4 sec 0.6 sec 2400 sec
20:00 6145 ft 4.20 ft 9.1 sec 5.5 sec 0.6 sec 2400 sec
21:00 6145 ft 4.20 ft 10.0 sec 5.7 sec 0.6 sec 2400 sec
22:00 6145 ft 3.97 ft 9.1 sec 5.2 sec 0.6 sec 2400 sec